createdAt,value
2023-05-01T00:01:43.297Z,19.37
2023-05-01T00:04:10.131Z,17.70
2023-05-01T00:06:36.993Z,16.10
2023-05-01T00:09:03.560Z,19.30
2023-05-01T00:11:30.066Z,20.77
2023-05-01T00:13:56.552Z,22.53
2023-05-01T00:16:23.121Z,24.50
2023-05-01T00:18:49.724Z,16.97
2023-05-01T00:21:16.975Z,14.60
2023-05-01T00:23:43.573Z,15.13
2023-05-01T00:26:10.242Z,15.67
2023-05-01T00:28:36.750Z,19.03
2023-05-01T00:31:03.288Z,16.73
2023-05-01T00:33:29.817Z,16.50
2023-05-01T00:35:56.435Z,14.30
2023-05-01T00:38:24.257Z,20.30
2023-05-01T00:40:51.185Z,16.50
2023-05-01T00:43:17.806Z,18.47
2023-05-01T00:45:45.010Z,15.07
2023-05-01T00:48:11.690Z,15.20
2023-05-01T00:50:38.382Z,13.87
2023-05-01T00:53:04.948Z,13.13
2023-05-01T00:55:31.548Z,15.27
2023-05-01T00:57:58.501Z,13.10
2023-05-01T01:00:25.035Z,13.93
2023-05-01T01:02:52.245Z,16.00
2023-05-01T01:05:18.802Z,14.67
2023-05-01T01:07:51.180Z,15.23
2023-05-01T01:10:23.723Z,16.00
2023-05-01T01:12:55.501Z,16.03
2023-05-01T01:15:24.282Z,16.07
2023-05-01T01:18:08.184Z,19.20
2023-05-01T01:20:46.380Z,19.63
2023-05-01T01:23:25.509Z,18.60
2023-05-01T01:26:10.859Z,16.50
2023-05-01T01:28:56.740Z,22.60
2023-05-01T01:31:42.336Z,16.73
2023-05-01T01:34:15.197Z,16.80
2023-05-01T01:36:53.876Z,21.33
2023-05-01T01:39:25.923Z,19.97
2023-05-01T01:41:52.687Z,15.43
2023-05-01T01:44:21.357Z,19.10
2023-05-01T01:46:48.487Z,22.87
2023-05-01T01:49:22.258Z,18.40
2023-05-01T01:51:49.018Z,19.70
2023-05-01T01:54:15.501Z,23.17
2023-05-01T01:56:42.253Z,26.37
2023-05-01T01:59:08.843Z,26.17
2023-05-01T02:01:35.656Z,25.60
2023-05-01T02:04:02.279Z,29.63
2023-05-01T02:06:28.884Z,29.13
2023-05-01T02:08:55.461Z,31.23
2023-05-01T02:11:22.125Z,34.97
2023-05-01T02:13:49.313Z,31.60
2023-05-01T02:16:16.417Z,30.70
2023-05-01T02:18:43.183Z,36.50
2023-05-01T02:21:09.827Z,32.77
2023-05-01T02:23:36.383Z,36.10
2023-05-01T02:26:03.296Z,32.60
2023-05-01T02:28:29.897Z,34.97
2023-05-01T02:30:57.456Z,30.77
2023-05-01T02:33:24.086Z,34.87
2023-05-01T02:35:50.542Z,31.20
2023-05-01T02:38:17.066Z,29.30
2023-05-01T02:40:44.436Z,29.30
2023-05-01T02:43:11.560Z,29.50
2023-05-01T02:45:38.817Z,32.70
2023-05-01T02:48:06.139Z,30.53
2023-05-01T02:50:32.981Z,29.83
2023-05-01T02:52:59.762Z,26.87
2023-05-01T02:55:26.451Z,29.70
2023-05-01T02:57:52.989Z,28.30
2023-05-01T03:00:19.835Z,28.83
2023-05-01T03:02:46.538Z,25.03
2023-05-01T03:05:13.853Z,27.10
2023-05-01T03:07:40.567Z,24.20
2023-05-01T03:10:07.934Z,27.30
2023-05-01T03:12:34.453Z,27.37
2023-05-01T03:15:00.936Z,24.33
2023-05-01T03:17:27.637Z,23.27
2023-05-01T03:19:54.340Z,24.03
2023-05-01T03:22:21.215Z,21.23
2023-05-01T03:24:47.931Z,26.63
2023-05-01T03:27:14.441Z,27.00
2023-05-01T03:29:40.948Z,24.87
2023-05-01T03:32:07.589Z,27.97
2023-05-01T03:34:34.537Z,25.10
2023-05-01T03:37:01.107Z,23.77
2023-05-01T03:39:27.999Z,27.90
2023-05-01T03:41:54.495Z,22.40
2023-05-01T03:44:21.260Z,23.13
2023-05-01T03:46:48.281Z,25.33
2023-05-01T03:49:14.756Z,23.43
2023-05-01T03:51:41.254Z,22.80
2023-05-01T03:54:08.138Z,21.50
2023-05-01T03:56:36.692Z,26.63
2023-05-01T03:59:03.161Z,23.53
2023-05-01T04:01:30.103Z,27.37
2023-05-01T04:03:56.657Z,22.37
2023-05-01T04:06:23.729Z,17.07
2023-05-01T04:08:50.234Z,21.03
2023-05-01T04:11:16.877Z,19.37
2023-05-01T04:13:43.513Z,16.27
2023-05-01T04:16:10.090Z,19.50
2023-05-01T04:18:36.636Z,13.73
2023-05-01T04:21:03.837Z,19.77
2023-05-01T04:23:30.335Z,18.20
2023-05-01T04:25:57.081Z,19.27
2023-05-01T04:28:23.592Z,16.20
2023-05-01T04:30:50.352Z,19.80
2023-05-01T04:33:16.843Z,16.27
2023-05-01T04:35:43.811Z,18.17
2023-05-01T04:38:10.774Z,16.00
2023-05-01T04:40:37.353Z,19.33
2023-05-01T04:43:03.853Z,13.20
2023-05-01T04:45:30.397Z,17.63
2023-05-01T04:47:56.992Z,15.63
2023-05-01T04:50:23.535Z,14.17
2023-05-01T04:52:50.077Z,12.10
2023-05-01T04:55:16.719Z,13.93
2023-05-01T04:57:43.274Z,14.43
2023-05-01T05:00:10.061Z,12.37
2023-05-01T05:02:36.675Z,17.73
2023-05-01T05:05:03.265Z,10.93
2023-05-01T05:07:30.400Z,11.83
2023-05-01T05:09:57.054Z,16.40
2023-05-01T05:12:23.822Z,10.23
2023-05-01T05:14:50.472Z,12.20
2023-05-01T05:17:17.118Z,12.80
2023-05-01T05:19:43.704Z,12.40
2023-05-01T05:22:12.335Z,10.93
2023-05-01T05:24:39.032Z,11.83
2023-05-01T05:27:07.236Z,14.50
2023-05-01T05:29:35.112Z,11.83
2023-05-01T05:32:01.833Z,10.73
2023-05-01T05:34:28.520Z,8.47
2023-05-01T05:36:54.992Z,10.67
2023-05-01T05:39:22.462Z,10.83
2023-05-01T05:41:49.487Z,12.67
2023-05-01T05:44:16.308Z,11.77
2023-05-01T05:46:42.944Z,10.33
2023-05-01T05:49:09.678Z,10.77
2023-05-01T05:51:36.206Z,7.57
2023-05-01T05:54:02.670Z,10.53
2023-05-01T05:56:29.161Z,7.45
2023-05-01T05:58:55.636Z,8.65
2023-05-01T06:01:22.297Z,7.33
2023-05-01T06:03:48.904Z,7.35
2023-05-01T06:06:18.818Z,11.30
2023-05-01T06:08:46.935Z,8.35
2023-05-01T06:11:13.466Z,4.80
2023-05-01T06:13:40.140Z,5.95
2023-05-01T06:16:12.168Z,5.85
2023-05-01T06:18:38.808Z,3.38
2023-05-01T06:21:05.385Z,5.00
2023-05-01T06:23:34.344Z,4.45
2023-05-01T06:26:00.871Z,3.55
2023-05-01T06:28:27.883Z,6.35
2023-05-01T06:30:54.714Z,3.33
2023-05-01T06:33:21.774Z,3.10
2023-05-01T06:35:50.891Z,4.28
2023-05-01T06:38:17.433Z,6.28
2023-05-01T06:40:47.519Z,3.75
2023-05-01T06:43:14.285Z,4.82
2023-05-01T06:45:44.841Z,4.30
2023-05-01T06:48:14.164Z,5.90
2023-05-01T06:50:40.857Z,5.20
2023-05-01T06:53:07.356Z,2.42
2023-05-01T06:55:36.907Z,3.97
2023-05-01T06:58:22.498Z,4.72
2023-05-01T07:00:50.507Z,4.25
2023-05-01T07:03:19.247Z,3.83
2023-05-01T07:05:46.202Z,5.82
2023-05-01T07:08:13.261Z,7.15
2023-05-01T07:10:41.865Z,3.42
2023-05-01T07:13:09.300Z,4.82
2023-05-01T07:15:35.996Z,3.70
2023-05-01T07:18:08.751Z,3.63
2023-05-01T07:20:35.468Z,6.75
2023-05-01T07:23:02.071Z,2.90
2023-05-01T07:25:30.833Z,1.60
2023-05-01T07:27:57.467Z,2.67
2023-05-01T07:30:24.054Z,6.07
2023-05-01T07:32:50.728Z,4.82
2023-05-01T07:35:17.358Z,4.28
2023-05-01T07:37:43.868Z,1.48
2023-05-01T07:40:10.965Z,1.73
2023-05-01T07:42:37.581Z,3.92
2023-05-01T07:45:04.313Z,3.60
2023-05-01T07:47:30.997Z,4.97
2023-05-01T07:49:57.937Z,2.50
2023-05-01T07:52:24.690Z,5.68
2023-05-01T07:54:51.330Z,2.85
2023-05-01T07:57:17.954Z,3.70
2023-05-01T07:59:44.561Z,2.88
2023-05-01T08:02:11.188Z,1.35
2023-05-01T08:04:37.800Z,3.95
2023-05-01T08:07:04.397Z,1.95
2023-05-01T08:09:31.378Z,2.63
2023-05-01T08:11:57.920Z,2.88
2023-05-01T08:14:24.528Z,3.28
2023-05-01T08:16:55.619Z,1.48
2023-05-01T08:19:22.229Z,2.65
2023-05-01T08:21:48.834Z,4.28
2023-05-01T08:24:15.325Z,3.88
2023-05-01T08:26:42.183Z,5.78
2023-05-01T08:29:08.883Z,3.95
2023-05-01T08:31:38.000Z,2.58
2023-05-01T08:34:06.315Z,4.13
2023-05-01T08:36:33.081Z,2.47
2023-05-01T08:38:59.779Z,2.17
2023-05-01T08:41:27.815Z,2.47
2023-05-01T08:43:55.655Z,2.28
2023-05-01T08:46:31.433Z,2.28
2023-05-01T08:48:58.794Z,2.28
2023-05-01T08:51:25.876Z,2.90
2023-05-01T08:53:53.074Z,3.30
2023-05-01T08:56:20.050Z,1.95
2023-05-01T08:58:46.567Z,1.55
2023-05-01T09:01:16.326Z,2.03
2023-05-01T09:03:44.619Z,4.25
2023-05-01T09:06:11.579Z,3.60
2023-05-01T09:08:38.342Z,3.20
2023-05-01T09:11:04.869Z,1.50
2023-05-01T09:13:31.723Z,4.57
2023-05-01T09:15:58.262Z,1.38
2023-05-01T09:18:25.499Z,3.80
2023-05-01T09:20:52.153Z,2.15
2023-05-01T09:23:20.307Z,3.50
2023-05-01T09:25:46.867Z,2.15
2023-05-01T09:28:13.428Z,1.42
2023-05-01T09:30:40.139Z,2.70
2023-05-01T09:33:07.397Z,4.55
2023-05-01T09:35:37.905Z,2.10
2023-05-01T09:38:04.403Z,2.85
2023-05-01T09:40:31.594Z,6.55
2023-05-01T09:42:58.384Z,3.72
2023-05-01T09:45:26.726Z,2.70
2023-05-01T09:47:54.060Z,2.83
2023-05-01T09:50:30.880Z,1.27
2023-05-01T09:52:57.436Z,3.55
2023-05-01T09:55:25.785Z,2.80
2023-05-01T09:57:52.812Z,5.13
2023-05-01T10:00:22.148Z,4.13
2023-05-01T10:02:49.253Z,1.80
2023-05-01T10:05:15.793Z,1.42
2023-05-01T10:07:58.723Z,3.15
2023-05-01T10:10:25.333Z,1.20
2023-05-01T10:12:52.065Z,1.83
2023-05-01T10:15:25.542Z,2.97
2023-05-01T10:17:53.650Z,2.47
2023-05-01T10:20:20.364Z,2.03
2023-05-01T10:22:47.294Z,2.33
2023-05-01T10:25:14.197Z,1.70
2023-05-01T10:27:41.086Z,1.45
2023-05-01T10:30:08.206Z,1.73
2023-05-01T10:32:35.292Z,1.30
2023-05-01T10:35:20.207Z,2.55
2023-05-01T10:37:47.685Z,1.55
2023-05-01T10:40:32.937Z,3.15
2023-05-01T10:43:16.128Z,1.30
2023-05-01T10:45:46.117Z,1.67
2023-05-01T10:48:12.757Z,1.20
2023-05-01T10:51:12.038Z,1.88
2023-05-01T10:53:38.982Z,2.28
2023-05-01T10:56:06.336Z,1.13
2023-05-01T10:58:39.009Z,1.60
2023-05-01T11:01:38.409Z,3.20
2023-05-01T11:04:08.061Z,2.25
2023-05-01T11:06:35.061Z,8.02
2023-05-01T11:09:01.768Z,1.10
2023-05-01T11:11:28.244Z,2.47
2023-05-01T11:14:01.734Z,2.80
2023-05-01T11:16:38.222Z,3.88
2023-05-01T11:19:31.130Z,1.98
2023-05-01T11:21:57.718Z,0.80
2023-05-01T11:24:31.240Z,2.45
2023-05-01T11:27:00.094Z,2.03
2023-05-01T11:29:29.081Z,1.20
2023-05-01T11:31:55.652Z,0.93
2023-05-01T11:34:22.257Z,1.00
2023-05-01T11:36:52.018Z,2.22
2023-05-01T11:39:18.708Z,1.98
2023-05-01T11:41:45.506Z,1.20
2023-05-01T11:44:12.341Z,0.70
2023-05-01T11:46:38.869Z,1.20
2023-05-01T11:49:05.722Z,2.42
2023-05-01T11:51:32.731Z,3.92
2023-05-01T11:54:03.471Z,1.27
2023-05-01T11:56:30.303Z,2.67
2023-05-01T11:58:57.648Z,4.55
2023-05-01T12:01:34.143Z,3.58
2023-05-01T12:04:00.752Z,2.47
2023-05-01T12:06:46.078Z,0.80
2023-05-01T12:09:16.360Z,1.95
2023-05-01T12:11:43.060Z,2.75
2023-05-01T12:14:09.798Z,2.17
2023-05-01T12:16:36.700Z,0.93
2023-05-01T12:19:03.536Z,1.70
2023-05-01T12:21:30.074Z,0.98
2023-05-01T12:23:58.347Z,1.40
2023-05-01T12:26:27.695Z,1.98
2023-05-01T12:28:57.957Z,1.58
2023-05-01T12:31:24.845Z,1.77
2023-05-01T12:33:55.658Z,0.95
2023-05-01T12:36:25.814Z,2.30
2023-05-01T12:38:56.407Z,3.42
2023-05-01T12:41:32.485Z,1.25
2023-05-01T12:43:59.102Z,2.10
2023-05-01T12:46:26.112Z,1.20
2023-05-01T12:48:54.404Z,2.25
2023-05-01T12:51:21.278Z,1.77
2023-05-01T12:53:48.064Z,2.13
2023-05-01T12:56:24.278Z,2.00
2023-05-01T12:58:51.534Z,1.83
2023-05-01T13:01:27.646Z,1.85
2023-05-01T13:03:56.716Z,0.82
2023-05-01T13:06:31.929Z,1.00
2023-05-01T13:09:00.533Z,1.23
2023-05-01T13:11:27.372Z,1.52
2023-05-01T13:13:53.991Z,2.90
2023-05-01T13:16:21.112Z,3.72
2023-05-01T13:18:48.600Z,1.45
2023-05-01T13:21:16.503Z,2.08
2023-05-01T13:23:43.499Z,1.35
2023-05-01T13:26:10.886Z,1.30
2023-05-01T13:28:42.024Z,2.25
2023-05-01T13:31:13.452Z,3.22
2023-05-01T13:33:41.618Z,1.40
2023-05-01T13:36:24.405Z,0.90
2023-05-01T13:38:54.184Z,1.63
2023-05-01T13:41:21.193Z,1.40
2023-05-01T13:43:48.067Z,3.45
2023-05-01T13:46:15.538Z,1.67
2023-05-01T13:48:42.299Z,1.35
2023-05-01T13:51:09.761Z,1.45
2023-05-01T13:53:36.503Z,3.28
2023-05-01T13:56:09.513Z,1.73
2023-05-01T13:58:36.193Z,2.00
2023-05-01T14:01:04.158Z,1.35
2023-05-01T14:03:32.505Z,0.93
2023-05-01T14:05:59.170Z,1.42
2023-05-01T14:08:27.219Z,2.35
2023-05-01T14:10:54.234Z,1.90
2023-05-01T14:13:23.648Z,1.65
2023-05-01T14:15:51.721Z,2.33
2023-05-01T14:18:18.578Z,1.65
2023-05-01T14:20:46.825Z,1.80
2023-05-01T14:23:17.558Z,1.98
2023-05-01T14:25:44.703Z,1.45
2023-05-01T14:28:17.287Z,3.83
2023-05-01T14:30:44.035Z,3.58
2023-05-01T14:33:14.262Z,2.85
2023-05-01T14:35:51.057Z,3.20
2023-05-01T14:38:17.991Z,1.30
2023-05-01T14:40:45.445Z,0.93
2023-05-01T14:43:16.892Z,2.35
2023-05-01T14:45:43.818Z,2.45
2023-05-01T14:48:11.045Z,4.22
2023-05-01T14:50:37.601Z,1.65
2023-05-01T14:53:04.236Z,1.13
2023-05-01T14:55:33.256Z,2.88
2023-05-01T14:57:59.776Z,1.75
2023-05-01T15:00:27.715Z,1.27
2023-05-01T15:02:55.516Z,2.83
2023-05-01T15:05:22.146Z,1.25
2023-05-01T15:07:48.798Z,2.63
2023-05-01T15:10:16.068Z,1.38
2023-05-01T15:12:42.604Z,1.70
2023-05-01T15:15:09.630Z,1.38
2023-05-01T15:17:36.363Z,1.42
2023-05-01T15:20:03.540Z,1.35
2023-05-01T15:22:30.122Z,2.90
2023-05-01T15:24:56.939Z,2.15
2023-05-01T15:27:23.616Z,2.78
2023-05-01T15:29:50.160Z,2.47
2023-05-01T15:32:16.789Z,3.50
2023-05-01T15:34:43.367Z,3.72
2023-05-01T15:37:10.004Z,1.80
2023-05-01T15:39:38.135Z,1.40
2023-05-01T15:42:04.653Z,2.05
2023-05-01T15:44:32.037Z,1.40
2023-05-01T15:46:58.736Z,1.52
2023-05-01T15:49:25.422Z,2.28
2023-05-01T15:51:52.019Z,1.42
2023-05-01T15:54:19.267Z,2.58
2023-05-01T15:56:45.906Z,1.40
2023-05-01T15:59:14.410Z,3.00
2023-05-01T16:01:41.514Z,3.60
2023-05-01T16:04:08.192Z,3.30
2023-05-01T16:06:34.980Z,3.08
2023-05-01T16:09:01.590Z,5.20
2023-05-01T16:11:28.250Z,1.00
2023-05-01T16:13:55.029Z,0.90
2023-05-01T16:16:25.976Z,3.00
2023-05-01T16:18:53.850Z,2.90
2023-05-01T16:21:20.490Z,2.45
2023-05-01T16:23:47.053Z,3.25
2023-05-01T16:26:13.597Z,3.17
2023-05-01T16:28:40.186Z,2.13
2023-05-01T16:31:19.668Z,1.20
2023-05-01T16:33:54.008Z,1.90
2023-05-01T16:36:21.449Z,2.08
2023-05-01T16:38:48.234Z,1.40
2023-05-01T16:41:17.917Z,3.25
2023-05-01T16:43:45.042Z,2.28
2023-05-01T16:46:12.468Z,2.65
2023-05-01T16:48:39.104Z,2.47
2023-05-01T16:51:06.399Z,2.22
2023-05-01T16:53:33.459Z,4.47
2023-05-01T16:56:00.130Z,1.15
2023-05-01T16:58:26.820Z,1.80
2023-05-01T17:00:53.828Z,1.73
2023-05-01T17:03:20.461Z,1.85
2023-05-01T17:05:47.010Z,3.10
2023-05-01T17:08:13.559Z,2.47
2023-05-01T17:10:40.285Z,1.75
2023-05-01T17:13:07.862Z,1.25
2023-05-01T17:15:34.620Z,2.92
2023-05-01T17:18:01.286Z,3.00
2023-05-01T17:20:28.876Z,1.63
2023-05-01T17:22:55.571Z,1.23
2023-05-01T17:25:22.158Z,2.90
2023-05-01T17:27:48.688Z,1.58
2023-05-01T17:30:15.392Z,2.05
2023-05-01T17:32:42.057Z,2.08
2023-05-01T17:35:08.717Z,1.20
2023-05-01T17:37:35.354Z,3.58
2023-05-01T17:40:02.231Z,3.35
2023-05-01T17:42:29.067Z,4.15
2023-05-01T17:44:55.736Z,3.25
2023-05-01T17:47:24.449Z,1.52
2023-05-01T17:49:52.640Z,7.80
2023-05-01T17:52:19.173Z,3.80
2023-05-01T17:54:45.781Z,4.53
2023-05-01T17:57:19.819Z,2.72
2023-05-01T17:59:46.789Z,3.60
2023-05-01T18:02:13.402Z,2.85
2023-05-01T18:04:42.841Z,2.35
2023-05-01T18:07:09.616Z,3.50
2023-05-01T18:09:36.201Z,1.70
2023-05-01T18:12:03.265Z,2.55
2023-05-01T18:14:30.228Z,4.45
2023-05-01T18:16:57.154Z,3.97
2023-05-01T18:19:23.702Z,1.42
2023-05-01T18:21:50.343Z,2.42
2023-05-01T18:24:16.930Z,4.03
2023-05-01T18:26:43.521Z,5.25
2023-05-01T18:29:10.051Z,3.00
2023-05-01T18:31:38.341Z,4.53
2023-05-01T18:34:04.994Z,4.20
2023-05-01T18:36:32.356Z,4.50
2023-05-01T18:38:59.031Z,4.13
2023-05-01T18:41:25.874Z,4.07
2023-05-01T18:43:55.605Z,7.47
2023-05-01T18:46:23.778Z,6.22
2023-05-01T18:48:50.900Z,4.65
2023-05-01T18:51:17.650Z,8.27
2023-05-01T18:53:44.627Z,5.95
2023-05-01T18:56:11.227Z,6.18
2023-05-01T18:58:38.965Z,4.35
2023-05-01T19:01:06.126Z,3.58
2023-05-01T19:03:32.687Z,5.43
2023-05-01T19:05:59.264Z,6.45
2023-05-01T19:08:25.820Z,12.32
2023-05-01T19:10:52.808Z,7.97
2023-05-01T19:13:19.348Z,6.80
2023-05-01T19:15:46.564Z,5.13
2023-05-01T19:18:13.265Z,4.15
2023-05-01T19:20:39.805Z,5.45
2023-05-01T19:23:06.398Z,9.07
2023-05-01T19:25:34.357Z,4.80
2023-05-01T19:28:02.183Z,6.30
2023-05-01T19:30:28.797Z,6.22
2023-05-01T19:32:58.368Z,5.93
2023-05-01T19:35:24.988Z,9.40
2023-05-01T19:37:55.542Z,6.22
2023-05-01T19:40:22.168Z,10.27
2023-05-01T19:42:48.693Z,7.95
2023-05-01T19:45:17.725Z,7.95
2023-05-01T19:47:46.826Z,7.63
2023-05-01T19:50:17.873Z,9.30
2023-05-01T19:52:44.454Z,8.00
2023-05-01T19:55:12.981Z,9.63
2023-05-01T19:57:39.541Z,7.50
2023-05-01T20:00:07.193Z,10.00
2023-05-01T20:02:33.856Z,8.63
2023-05-01T20:05:01.634Z,6.45
2023-05-01T20:07:29.901Z,9.02
2023-05-01T20:09:56.973Z,7.85
2023-05-01T20:12:23.628Z,10.98
2023-05-01T20:14:50.260Z,9.70
2023-05-01T20:17:16.883Z,8.13
2023-05-01T20:19:43.465Z,7.40
2023-05-01T20:22:10.134Z,7.35
2023-05-01T20:24:36.766Z,8.10
2023-05-01T20:27:03.771Z,9.30
2023-05-01T20:29:30.298Z,7.13
2023-05-01T20:31:58.483Z,7.72
2023-05-01T20:34:25.332Z,6.28
2023-05-01T20:36:52.208Z,6.45
2023-05-01T20:39:18.810Z,5.63
2023-05-01T20:41:45.338Z,5.32
2023-05-01T20:44:11.820Z,7.30
2023-05-01T20:46:38.418Z,4.88
2023-05-01T20:49:08.597Z,4.70
2023-05-01T20:51:36.506Z,4.40
2023-05-01T20:54:03.157Z,5.35
2023-05-01T20:56:29.682Z,6.85
2023-05-01T20:58:56.204Z,6.95
2023-05-01T21:01:22.782Z,6.50
2023-05-01T21:03:49.519Z,15.68
2023-05-01T21:06:16.223Z,5.25
2023-05-01T21:08:42.879Z,7.68
2023-05-01T21:11:09.468Z,7.70
2023-05-01T21:13:36.017Z,6.72
2023-05-01T21:16:02.867Z,6.63
2023-05-01T21:18:30.126Z,9.02
2023-05-01T21:20:57.010Z,4.95
2023-05-01T21:23:23.509Z,7.28
2023-05-01T21:25:51.025Z,6.50
2023-05-01T21:28:17.505Z,7.53
2023-05-01T21:30:44.023Z,5.20
2023-05-01T21:33:13.901Z,7.22
2023-05-01T21:35:44.687Z,8.88
2023-05-01T21:38:11.255Z,9.95
2023-05-01T21:40:38.190Z,6.18
2023-05-01T21:43:05.191Z,5.65
2023-05-01T21:45:32.552Z,6.70
2023-05-01T21:47:59.011Z,6.70
2023-05-01T21:50:25.643Z,6.35
2023-05-01T21:52:52.168Z,4.70
2023-05-01T21:55:22.567Z,5.32
2023-05-01T21:57:52.011Z,6.22
2023-05-01T22:00:19.341Z,5.35
2023-05-01T22:02:46.727Z,5.00
2023-05-01T22:05:13.625Z,5.32
2023-05-01T22:07:40.694Z,5.57
2023-05-01T22:10:08.317Z,5.80
2023-05-01T22:12:34.910Z,6.63
2023-05-01T22:15:01.575Z,7.43
2023-05-01T22:17:28.083Z,12.48
2023-05-01T22:19:54.606Z,5.80
2023-05-01T22:22:21.246Z,7.80
2023-05-01T22:24:47.846Z,9.20
2023-05-01T22:27:16.053Z,8.95
2023-05-01T22:29:42.932Z,8.88
2023-05-01T22:32:09.484Z,9.05
2023-05-01T22:34:36.115Z,7.18
2023-05-01T22:37:02.644Z,8.77
2023-05-01T22:39:29.905Z,8.77
2023-05-01T22:41:58.830Z,8.70
2023-05-01T22:44:25.529Z,9.93
2023-05-01T22:46:52.145Z,12.15
2023-05-01T22:49:18.898Z,6.90
2023-05-01T22:51:45.690Z,7.20
2023-05-01T22:54:12.200Z,9.38
2023-05-01T22:56:38.799Z,9.50
2023-05-01T22:59:05.421Z,9.00
2023-05-01T23:01:31.973Z,8.68
2023-05-01T23:03:58.742Z,7.68
2023-05-01T23:06:25.425Z,6.82
2023-05-01T23:08:53.677Z,7.57
2023-05-01T23:11:21.463Z,8.05
2023-05-01T23:13:48.781Z,9.23
2023-05-01T23:16:16.378Z,7.63
2023-05-01T23:18:42.997Z,9.45
2023-05-01T23:21:17.156Z,8.23
2023-05-01T23:23:43.785Z,11.48
2023-05-01T23:26:23.812Z,6.82
2023-05-01T23:28:50.351Z,8.15
2023-05-01T23:31:24.485Z,10.57
2023-05-01T23:33:51.105Z,11.82
2023-05-01T23:36:17.904Z,9.30
2023-05-01T23:38:44.462Z,9.23
2023-05-01T23:41:10.981Z,8.50
2023-05-01T23:43:38.061Z,8.88
2023-05-01T23:46:05.464Z,10.50
2023-05-01T23:48:32.506Z,8.57
2023-05-01T23:50:58.999Z,9.43
2023-05-01T23:53:25.791Z,8.95
2023-05-01T23:55:52.321Z,8.00
2023-05-01T23:58:18.929Z,10.40
